Time;durP1;ratioP1;P1;durP2;ratioP2;P2;SDS_P1;SDS_P2;PMS_P1;PMS_P2;Temp;Humidity;BMP_temperature;BMP_pressure;BME280_temperature;BME280_humidity;BME280_pressure;Samples;Min_cycle;Max_cycle;Signal;HPM_P1;HPM_P2
2023/06/25 00:00:46;;;;;;;12.90;10.93;;;;;;;18.35;86.31;101426.66;5036003;28;20049;-54
2023/06/25 00:03:13;;;;;;;16.65;11.40;;;;;;;18.30;87.22;101431.50;5032267;28;20049;-54
2023/06/25 00:05:42;;;;;;;17.50;9.95;;;;;;;18.26;87.35;101427.38;5029847;28;20417;-57
2023/06/25 00:08:09;;;;;;;13.23;10.20;;;;;;;18.24;87.29;101424.84;5034127;28;20069;-59
2023/06/25 00:10:36;;;;;;;13.60;10.65;;;;;;;18.21;87.75;101422.41;5032394;28;20087;-57
2023/06/25 00:13:04;;;;;;;14.32;9.63;;;;;;;18.19;88.22;101425.19;5032479;28;20041;-59
2023/06/25 00:15:31;;;;;;;13.00;10.15;;;;;;;18.15;88.65;101429.06;5031128;28;20063;-57
2023/06/25 00:17:58;;;;;;;16.67;10.25;;;;;;;18.13;89.32;101431.00;5026449;28;20526;-56
2023/06/25 00:20:26;;;;;;;13.88;10.07;;;;;;;18.12;89.00;101421.31;5026334;28;20059;-54
2023/06/25 00:22:53;;;;;;;14.65;10.30;;;;;;;18.16;88.89;101425.44;5031288;28;20049;-58
2023/06/25 00:25:34;;;;;;;15.63;10.88;;;;;;;18.16;89.32;101425.44;5031432;28;20061;-57
2023/06/25 00:28:02;;;;;;;16.30;10.70;;;;;;;18.18;89.49;101423.47;5031939;28;20045;-57
2023/06/25 00:30:29;;;;;;;13.43;10.50;;;;;;;18.20;89.47;101421.56;5027035;28;20053;-58
2023/06/25 00:32:57;;;;;;;14.10;10.00;;;;;;;18.22;89.33;101422.28;5030398;28;20049;-57
2023/06/25 00:35:28;;;;;;;12.48;9.93;;;;;;;18.26;88.87;101419.38;5028321;28;20064;-58
2023/06/25 00:38:00;;;;;;;15.20;10.85;;;;;;;18.26;89.06;101422.88;5028720;28;20049;-56
2023/06/25 00:40:28;;;;;;;16.77;10.27;;;;;;;18.30;88.36;101420.84;5029815;28;20057;-54
2023/06/25 00:42:58;;;;;;;14.43;10.77;;;;;;;18.34;88.35;101422.28;5029491;28;20063;-57
2023/06/25 00:45:26;;;;;;;14.30;10.85;;;;;;;18.37;88.38;101422.03;5028045;28;20053;-58
2023/06/25 00:47:54;;;;;;;16.08;10.20;;;;;;;18.39;88.50;101418.28;5031908;28;20049;-54
2023/06/25 00:50:21;;;;;;;14.77;10.95;;;;;;;18.40;88.96;101413.78;5032028;28;20069;-53
2023/06/25 00:52:50;;;;;;;15.35;11.82;;;;;;;18.43;88.22;101410.91;5028664;28;20053;-56
2023/06/25 00:55:18;;;;;;;13.57;10.30;;;;;;;18.45;88.33;101408.94;5026463;28;20050;-58
2023/06/25 00:57:46;;;;;;;13.45;11.07;;;;;;;18.45;89.12;101411.59;5022049;28;20067;-58
2023/06/25 01:00:14;;;;;;;15.82;12.00;;;;;;;18.46;89.07;101411.50;5028066;28;20097;-54
2023/06/25 01:02:46;;;;;;;16.92;12.80;;;;;;;18.48;88.47;101414.03;5030469;28;20063;-59
2023/06/25 01:05:24;;;;;;;13.85;11.80;;;;;;;18.50;87.28;101411.25;5020346;28;20136;-56
2023/06/25 01:07:52;;;;;;;17.35;13.10;;;;;;;18.54;86.66;101413.53;5027991;28;20591;-57
2023/06/25 01:10:19;;;;;;;16.45;13.05;;;;;;;18.57;85.97;101412.47;5018279;28;20063;-57
2023/06/25 01:12:47;;;;;;;15.18;12.73;;;;;;;18.59;85.77;101416.69;5026902;28;20441;-55
2023/06/25 01:15:14;;;;;;;17.80;14.35;;;;;;;18.63;85.12;101414.63;5028551;28;20418;-58
2023/06/25 01:17:41;;;;;;;19.90;12.60;;;;;;;18.64;85.58;101417.19;5028402;28;20056;-58
2023/06/25 01:20:11;;;;;;;15.52;12.25;;;;;;;18.66;85.72;101411.72;5022932;28;20117;-58
2023/06/25 01:22:42;;;;;;;15.57;11.68;;;;;;;18.68;85.20;101405.28;5028474;28;20548;-58
2023/06/25 01:25:10;;;;;;;15.90;13.23;;;;;;;18.69;84.87;101406.19;5029075;28;20057;-56
2023/06/25 01:27:37;;;;;;;18.15;11.32;;;;;;;18.71;84.57;101409.56;5037378;28;20466;-57
2023/06/25 01:30:09;;;;;;;12.85;11.35;;;;;;;18.73;84.14;101404.94;5035791;28;20045;-49
2023/06/25 01:32:41;;;;;;;14.10;11.52;;;;;;;18.76;83.54;101406.53;5028746;28;20053;-52
2023/06/25 01:35:10;;;;;;;15.70;11.80;;;;;;;18.79;82.95;101401.78;5033629;28;20052;-49
2023/06/25 01:37:37;;;;;;;15.52;11.30;;;;;;;18.83;82.19;101405.06;5031986;28;20059;-58
2023/06/25 01:40:07;;;;;;;14.80;11.60;;;;;;;18.85;82.27;101395.09;5028915;28;20053;-58
2023/06/25 01:42:35;;;;;;;14.82;11.07;;;;;;;18.87;82.99;101398.50;5035110;28;20685;-52
2023/06/25 01:45:03;;;;;;;16.23;11.63;;;;;;;18.87;83.45;101393.16;5032851;28;20072;-50
2023/06/25 01:47:31;;;;;;;14.52;11.07;;;;;;;18.87;83.34;101390.50;5033718;28;20059;-51
2023/06/25 01:49:58;;;;;;;12.68;11.27;;;;;;;18.88;82.94;101394.84;5034221;28;20053;-49
2023/06/25 01:52:25;;;;;;;12.18;10.05;;;;;;;18.90;83.20;101392.91;5035457;28;20092;-52
2023/06/25 01:54:53;;;;;;;12.82;10.32;;;;;;;18.88;83.97;101389.53;5026644;28;20064;-54
2023/06/25 01:57:21;;;;;;;13.73;10.77;;;;;;;18.88;83.42;101382.38;5027799;28;20402;-56
2023/06/25 01:59:48;;;;;;;12.68;11.20;;;;;;;18.90;82.95;101388.41;5026413;28;20049;-51
2023/06/25 02:02:15;;;;;;;16.25;12.20;;;;;;;18.92;82.35;101374.97;5031848;28;20061;-55
2023/06/25 02:04:42;;;;;;;15.75;11.23;;;;;;;18.94;82.35;101379.19;5027509;28;20050;-56
2023/06/25 02:07:10;;;;;;;12.52;10.55;;;;;;;18.96;83.20;101381.75;5033910;28;20072;-54
2023/06/25 02:09:37;;;;;;;14.90;10.85;;;;;;;18.97;83.49;101375.44;5030194;28;20603;-54
2023/06/25 02:12:04;;;;;;;16.33;10.80;;;;;;;18.96;83.62;101371.91;5030645;28;20050;-55
2023/06/25 02:14:32;;;;;;;11.38;9.85;;;;;;;18.96;83.16;101379.06;5037763;28;20132;-57
2023/06/25 02:16:59;;;;;;;12.68;10.25;;;;;;;18.95;83.37;101370.19;5033596;28;20056;-56
2023/06/25 02:19:27;;;;;;;15.25;10.65;;;;;;;18.96;82.74;101369.25;5027678;28;20150;-52
2023/06/25 02:21:54;;;;;;;13.15;10.60;;;;;;;18.99;82.16;101376.13;5033309;28;20049;-57
2023/06/25 02:24:21;;;;;;;14.13;10.63;;;;;;;19.00;81.47;101371.63;5035042;28;20053;-54
2023/06/25 02:26:48;;;;;;;12.45;10.10;;;;;;;19.03;80.96;101379.41;5035627;28;20516;-54
2023/06/25 02:29:15;;;;;;;12.13;10.00;;;;;;;19.03;81.88;101371.41;5037277;28;20053;-53
2023/06/25 02:31:42;;;;;;;15.18;10.73;;;;;;;19.04;81.97;101378.41;5041751;28;20076;-54
2023/06/25 02:34:10;;;;;;;13.75;9.30;;;;;;;19.06;81.46;101376.50;5041100;28;20052;-57
2023/06/25 02:36:37;;;;;;;13.07;10.73;;;;;;;19.07;81.42;101373.69;5039065;28;20060;-52
2023/06/25 02:39:04;;;;;;;13.60;10.43;;;;;;;19.08;81.16;101369.19;5037041;28;20053;-56
2023/06/25 02:41:31;;;;;;;18.67;10.88;;;;;;;19.09;80.48;101366.41;5042466;28;20069;-51
2023/06/25 02:43:58;;;;;;;16.67;11.90;;;;;;;19.12;80.12;101368.81;5044706;28;20041;-52
2023/06/25 02:46:26;;;;;;;17.88;11.07;;;;;;;19.13;79.48;101370.50;5035434;28;20510;-49
2023/06/25 02:48:53;;;;;;;15.77;11.00;;;;;;;19.14;79.54;101364.22;5036566;28;20061;-54
2023/06/25 02:51:20;;;;;;;17.33;11.43;;;;;;;19.17;79.81;101361.25;5036604;28;20049;-54
2023/06/25 02:53:47;;;;;;;13.85;11.02;;;;;;;19.19;79.47;101370.00;5036827;28;20377;-58
2023/06/25 02:56:14;;;;;;;13.07;10.15;;;;;;;19.21;80.20;101361.84;5020818;28;20049;-54
2023/06/25 02:58:42;;;;;;;15.55;10.40;;;;;;;19.22;81.73;101361.72;5033652;28;20608;-56
2023/06/25 03:01:09;;;;;;;14.10;9.95;;;;;;;19.22;82.40;101367.06;5036401;28;20691;-51
2023/06/25 03:03:36;;;;;;;16.05;10.55;;;;;;;19.21;82.51;101357.38;5034411;28;20045;-49
2023/06/25 03:06:05;;;;;;;11.60;9.75;;;;;;;19.23;83.15;101351.91;5023375;28;20060;-55
2023/06/25 03:08:32;;;;;;;15.95;11.35;;;;;;;19.23;83.30;101360.75;5033590;28;20068;-53
2023/06/25 03:10:59;;;;;;;13.52;10.13;;;;;;;19.23;83.49;101347.41;5025686;28;20556;-53
2023/06/25 03:13:27;;;;;;;11.68;10.07;;;;;;;19.25;83.31;101357.13;5030119;28;20064;-55
2023/06/25 03:15:54;;;;;;;14.68;10.77;;;;;;;19.26;83.06;101358.81;5031915;28;20057;-55
2023/06/25 03:18:21;;;;;;;13.40;10.32;;;;;;;19.27;83.13;101353.31;5024442;28;20076;-56
2023/06/25 03:20:48;;;;;;;15.65;10.85;;;;;;;19.27;82.63;101353.31;5028081;28;20067;-57
2023/06/25 03:23:16;;;;;;;13.07;9.75;;;;;;;19.28;83.51;101355.03;5029026;28;20049;-51
2023/06/25 03:25:43;;;;;;;14.85;10.52;;;;;;;19.29;83.77;101351.38;5033604;28;20064;-54
2023/06/25 03:28:10;;;;;;;11.57;9.93;;;;;;;19.30;83.61;101350.41;5031386;28;20076;-53
2023/06/25 03:30:38;;;;;;;10.43;9.27;;;;;;;19.33;83.51;101350.16;5034670;28;20114;-53
2023/06/25 03:33:05;;;;;;;12.10;9.85;;;;;;;19.35;83.66;101350.03;5035657;28;20053;-53
2023/06/25 03:35:32;;;;;;;14.30;10.18;;;;;;;19.38;83.55;101344.44;5032090;28;20049;-52
2023/06/25 03:37:59;;;;;;;12.45;10.38;;;;;;;19.41;83.42;101349.53;5034891;28;20077;-54
2023/06/25 03:40:26;;;;;;;12.15;10.60;;;;;;;19.43;82.62;101342.22;5026639;28;20076;-50
2023/06/25 03:42:53;;;;;;;11.82;10.40;;;;;;;19.45;82.14;101342.91;5039117;28;20066;-55
2023/06/25 03:45:21;;;;;;;13.77;10.38;;;;;;;19.49;81.84;101347.03;5039773;28;20717;-54
2023/06/25 03:47:48;;;;;;;11.63;9.73;;;;;;;19.52;81.37;101343.25;5038970;28;20049;-51
2023/06/25 03:50:16;;;;;;;13.65;10.75;;;;;;;19.56;80.83;101337.53;5035849;28;20147;-50
2023/06/25 03:52:43;;;;;;;13.93;10.35;;;;;;;19.61;81.38;101345.16;5035713;28;20470;-56
2023/06/25 03:55:10;;;;;;;13.02;10.25;;;;;;;19.64;81.76;101343.09;5022879;28;20832;-54
2023/06/25 03:57:37;;;;;;;12.40;9.93;;;;;;;19.66;81.78;101338.44;5028992;28;20065;-50
2023/06/25 04:00:05;;;;;;;13.73;10.00;;;;;;;19.68;81.23;101339.19;5025142;28;20058;-54
2023/06/25 04:02:33;;;;;;;15.10;10.05;;;;;;;19.70;81.91;101334.53;5030870;28;20053;-52
2023/06/25 04:05:00;;;;;;;12.05;10.18;;;;;;;19.71;81.03;101341.56;5032708;28;20071;-54
2023/06/25 04:07:27;;;;;;;13.88;9.93;;;;;;;19.72;80.12;101340.63;5028085;28;20053;-52
2023/06/25 04:09:54;;;;;;;12.75;9.30;;;;;;;19.78;79.44;101338.38;5025093;28;20046;-53
2023/06/25 04:12:21;;;;;;;15.57;10.10;;;;;;;19.82;78.86;101337.16;5026210;28;20059;-51
2023/06/25 04:14:49;;;;;;;13.60;10.38;;;;;;;19.84;78.79;101340.50;5025977;28;20147;-52
2023/06/25 04:17:16;;;;;;;14.15;10.23;;;;;;;19.87;78.42;101346.44;5025129;28;20164;-51
2023/06/25 04:19:43;;;;;;;15.15;10.65;;;;;;;19.88;78.51;101339.28;5025559;28;20677;-54
2023/06/25 04:22:10;;;;;;;13.13;9.50;;;;;;;19.89;78.45;101343.63;5029208;28;20054;-52
2023/06/25 04:24:37;;;;;;;17.08;10.00;;;;;;;19.90;78.16;101346.19;5035997;28;20053;-55
2023/06/25 04:27:05;;;;;;;10.88;9.75;;;;;;;19.90;77.42;101342.66;5033610;28;20614;-51
2023/06/25 04:29:32;;;;;;;15.05;9.98;;;;;;;19.92;76.87;101343.38;5032056;28;20059;-56
2023/06/25 04:32:01;;;;;;;12.93;9.45;;;;;;;19.94;76.40;101349.41;5028739;28;20042;-55
2023/06/25 04:34:28;;;;;;;11.68;9.98;;;;;;;19.95;75.95;101348.47;5034796;28;20041;-49
2023/06/25 04:36:56;;;;;;;13.95;9.13;;;;;;;20.00;75.63;101340.03;5027140;28;20046;-50
2023/06/25 04:39:23;;;;;;;13.88;10.32;;;;;;;20.03;75.54;101337.09;5029935;28;20597;-49
2023/06/25 04:41:50;;;;;;;12.52;9.02;;;;;;;20.06;77.02;101340.34;5035135;28;20071;-53
2023/06/25 04:44:17;;;;;;;13.10;9.30;;;;;;;20.09;77.14;101337.41;5037483;28;20055;-54
2023/06/25 04:46:44;;;;;;;12.60;9.85;;;;;;;20.12;76.86;101336.28;5029180;28;20053;-52
2023/06/25 04:49:12;;;;;;;12.00;10.40;;;;;;;20.14;76.60;101337.84;5036496;28;20297;-54
2023/06/25 04:51:44;;;;;;;10.77;8.25;;;;;;;20.19;76.16;101334.75;5029841;28;20067;-55
2023/06/25 04:54:12;;;;;;;11.80;8.80;;;;;;;20.21;75.33;101338.97;5031715;28;20061;-51
2023/06/25 04:56:39;;;;;;;13.68;8.30;;;;;;;20.26;74.59;101343.06;5035766;28;20056;-52
2023/06/25 04:59:06;;;;;;;8.68;7.25;;;;;;;20.30;73.81;101339.16;5033368;28;20129;-56
2023/06/25 05:01:33;;;;;;;10.18;7.43;;;;;;;20.34;73.10;101345.91;5039621;28;20053;-51
2023/06/25 05:04:01;;;;;;;15.57;7.80;;;;;;;20.38;72.66;101337.50;5036063;28;20049;-51
2023/06/25 05:06:28;;;;;;;12.00;8.15;;;;;;;20.45;72.09;101340.47;5031485;28;20068;-52
2023/06/25 05:08:56;;;;;;;11.88;7.72;;;;;;;20.50;71.69;101338.25;5030392;28;20350;-52
2023/06/25 05:11:23;;;;;;;10.65;8.15;;;;;;;20.54;71.29;101337.00;5031900;28;20601;-53
2023/06/25 05:13:50;;;;;;;13.60;8.45;;;;;;;20.61;71.17;101338.13;5030275;28;20049;-55
2023/06/25 05:16:17;;;;;;;12.27;7.30;;;;;;;20.67;70.85;101339.44;5030642;28;20068;-57
2023/06/25 05:18:44;;;;;;;11.77;8.52;;;;;;;20.72;70.36;101331.84;5026367;28;20056;-54
2023/06/25 05:21:11;;;;;;;8.75;7.40;;;;;;;20.79;70.15;101332.94;5027298;28;20057;-53
2023/06/25 05:23:43;;;;;;;11.43;7.30;;;;;;;20.83;70.27;101338.88;5034517;28;20055;-56
2023/06/25 05:26:11;;;;;;;8.77;7.85;;;;;;;20.88;70.22;101333.94;5032822;28;20044;-51
2023/06/25 05:28:39;;;;;;;9.02;7.63;;;;;;;20.91;70.09;101331.00;5020605;28;20509;-49
2023/06/25 05:31:07;;;;;;;10.75;7.60;;;;;;;20.94;70.34;101336.09;5032538;28;20413;-53
2023/06/25 05:33:34;;;;;;;13.10;8.35;;;;;;;20.99;70.15;101339.19;5031610;28;20045;-53
2023/06/25 05:36:01;;;;;;;9.57;8.10;;;;;;;21.01;69.56;101334.50;5035732;28;20076;-55
2023/06/25 05:38:28;;;;;;;9.75;6.93;;;;;;;21.04;69.56;101331.56;5028241;28;20057;-54
2023/06/25 05:40:56;;;;;;;10.77;7.75;;;;;;;21.08;68.88;101330.31;5027481;28;20061;-52
2023/06/25 05:43:23;;;;;;;10.73;7.72;;;;;;;21.15;68.72;101336.75;5030356;28;20092;-55
2023/06/25 05:45:50;;;;;;;11.70;7.32;;;;;;;21.20;68.04;101326.47;5035628;28;20059;-53
2023/06/25 05:48:17;;;;;;;8.60;7.55;;;;;;;21.26;67.83;101325.06;5034906;28;20486;-55
2023/06/25 05:50:44;;;;;;;13.27;7.50;;;;;;;21.32;67.64;101331.72;5032216;28;20045;-50
2023/06/25 05:53:12;;;;;;;9.13;6.95;;;;;;;21.40;67.92;101329.19;5037757;28;20061;-52
2023/06/25 05:55:39;;;;;;;10.35;7.75;;;;;;;21.46;67.72;101325.91;5032266;28;20056;-54
2023/06/25 05:58:06;;;;;;;14.73;7.10;;;;;;;21.49;67.24;101333.66;5032427;28;20041;-52
2023/06/25 06:00:33;;;;;;;8.77;7.72;;;;;;;21.54;67.50;101331.41;5031231;28;20048;-55
2023/06/25 06:03:00;;;;;;;17.30;7.95;;;;;;;21.59;67.37;101328.28;5039328;28;20059;-56
2023/06/25 06:05:28;;;;;;;9.93;7.90;;;;;;;21.64;67.34;101331.38;5040115;28;20053;-49
2023/06/25 06:07:55;;;;;;;9.65;7.15;;;;;;;21.73;67.46;101334.00;5030939;28;20409;-54
2023/06/25 06:10:22;;;;;;;7.80;7.00;;;;;;;21.83;66.66;101335.81;5040904;28;20617;-52
2023/06/25 06:12:49;;;;;;;12.27;7.85;;;;;;;21.95;65.99;101335.50;5032306;28;20072;-52
2023/06/25 06:15:17;;;;;;;8.18;7.35;;;;;;;22.05;65.97;101330.09;5041805;28;20053;-55
2023/06/25 06:17:44;;;;;;;10.60;7.63;;;;;;;22.14;65.06;101328.41;5032441;28;20417;-50
2023/06/25 06:20:11;;;;;;;8.90;7.30;;;;;;;22.23;64.44;101336.38;5031573;28;20109;-56
2023/06/25 06:22:38;;;;;;;12.25;7.55;;;;;;;22.35;64.27;101341.56;5034475;28;20382;-58
2023/06/25 06:25:06;;;;;;;9.45;7.53;;;;;;;22.44;63.33;101333.47;5036894;28;20056;-55
2023/06/25 06:27:33;;;;;;;10.80;6.60;;;;;;;22.49;63.35;101341.91;5034387;28;20056;-54
2023/06/25 06:30:00;;;;;;;13.07;7.20;;;;;;;22.57;62.99;101338.47;5034562;28;20137;-53
2023/06/25 06:32:27;;;;;;;7.65;6.95;;;;;;;22.67;62.53;101339.25;5037046;28;20058;-57
2023/06/25 06:34:55;;;;;;;9.88;7.13;;;;;;;22.73;62.67;101332.41;5038857;28;20163;-57
2023/06/25 06:37:22;;;;;;;9.20;6.97;;;;;;;22.81;62.08;101331.66;5039989;28;20060;-54
2023/06/25 06:39:49;;;;;;;8.77;7.10;;;;;;;22.77;61.83;101328.44;5033173;28;20045;-52
2023/06/25 06:42:16;;;;;;;9.00;6.75;;;;;;;22.80;60.87;101327.28;5038488;28;20068;-53
2023/06/25 06:44:43;;;;;;;9.80;7.20;;;;;;;22.81;60.80;101331.66;5038380;28;20442;-50
2023/06/25 06:47:10;;;;;;;8.82;6.32;;;;;;;22.84;59.69;101329.53;5036925;28;20072;-57
2023/06/25 06:49:38;;;;;;;9.13;6.45;;;;;;;22.93;59.52;101323.25;5042038;28;20076;-56
2023/06/25 06:52:05;;;;;;;11.05;6.80;;;;;;;23.16;59.47;101325.47;5037922;28;20446;-56
2023/06/25 06:54:32;;;;;;;13.27;7.72;;;;;;;23.22;59.01;101324.84;5040454;28;20049;-53
2023/06/25 06:56:59;;;;;;;13.45;7.45;;;;;;;23.18;59.32;101326.16;5032954;28;20044;-56
2023/06/25 06:59:26;;;;;;;9.48;6.78;;;;;;;23.22;59.50;101323.00;5030660;28;20157;-55
2023/06/25 07:01:54;;;;;;;9.00;6.72;;;;;;;23.33;58.03;101327.28;5035681;28;20049;-50
2023/06/25 07:04:21;;;;;;;7.80;6.55;;;;;;;23.37;57.46;101325.13;5032084;28;20056;-55
2023/06/25 07:06:48;;;;;;;8.77;6.10;;;;;;;23.48;57.08;101325.72;5037452;28;20511;-54
2023/06/25 07:09:22;;;;;;;10.02;6.20;;;;;;;23.55;56.33;101325.94;5032409;28;20075;-55
2023/06/25 07:11:52;;;;;;;7.25;6.28;;;;;;;23.61;56.37;101321.78;5035528;28;20059;-57
2023/06/25 07:14:19;;;;;;;5.88;5.28;;;;;;;23.69;56.36;101328.06;5031274;28;20065;-54
2023/06/25 07:16:46;;;;;;;10.85;6.28;;;;;;;23.77;56.41;101326.41;5033448;28;20053;-51
2023/06/25 07:19:13;;;;;;;8.43;6.35;;;;;;;23.84;55.99;101322.94;5035329;28;20073;-56
2023/06/25 07:21:41;;;;;;;6.88;6.18;;;;;;;24.01;55.55;101318.50;5034368;28;20071;-57
2023/06/25 07:24:08;;;;;;;11.25;6.30;;;;;;;24.23;55.52;101317.06;5029147;28;20058;-54
2023/06/25 07:26:35;;;;;;;8.25;5.90;;;;;;;24.46;55.00;101318.19;5039014;28;20045;-51
2023/06/25 07:29:02;;;;;;;10.10;6.60;;;;;;;24.53;54.71;101318.34;5038645;22;20045;-53
2023/06/25 07:31:29;;;;;;;6.88;6.10;;;;;;;24.59;54.17;101311.50;5022923;28;20052;-54
2023/06/25 07:33:57;;;;;;;8.25;6.40;;;;;;;24.73;53.99;101316.22;5020190;28;20053;-51
2023/06/25 07:36:24;;;;;;;7.50;6.60;;;;;;;24.74;54.16;101317.91;5017999;28;20042;-52
2023/06/25 07:38:56;;;;;;;6.63;5.53;;;;;;;24.89;53.36;101318.91;5021060;28;20049;-50
2023/06/25 07:41:24;;;;;;;8.85;7.05;;;;;;;25.07;53.23;101312.53;5024329;28;20057;-52
2023/06/25 07:43:51;;;;;;;8.32;6.35;;;;;;;25.10;52.57;101317.63;5019260;28;20060;-50
2023/06/25 07:46:18;;;;;;;8.18;6.68;;;;;;;25.02;52.65;101316.56;5022514;28;20113;-52
2023/06/25 07:48:45;;;;;;;8.85;7.15;;;;;;;25.01;52.46;101319.44;5027385;28;20149;-55
2023/06/25 07:51:13;;;;;;;8.63;6.70;;;;;;;25.01;52.56;101324.84;5024802;28;20050;-52
2023/06/25 07:53:40;;;;;;;8.48;6.38;;;;;;;25.08;52.21;101320.50;5012106;28;20133;-51
2023/06/25 07:56:07;;;;;;;9.98;6.63;;;;;;;25.27;52.30;101315.78;5026055;28;20045;-51
2023/06/25 07:58:35;;;;;;;7.45;6.32;;;;;;;25.31;51.66;101312.56;5023945;28;20291;-52
2023/06/25 08:01:02;;;;;;;8.48;5.85;;;;;;;25.34;50.69;101314.06;5021169;28;20056;-53
2023/06/25 08:03:29;;;;;;;7.15;5.78;;;;;;;25.39;50.71;101315.25;5023267;28;20096;-52
2023/06/25 08:05:57;;;;;;;6.68;5.30;;;;;;;25.41;50.72;101313.22;5012057;28;20045;-53
2023/06/25 08:08:24;;;;;;;12.75;5.90;;;;;;;25.55;49.81;101313.53;5020360;28;20061;-52
2023/06/25 08:10:51;;;;;;;6.60;6.00;;;;;;;25.53;49.12;101313.69;5016376;28;20052;-51
2023/06/25 08:13:20;;;;;;;7.35;6.05;;;;;;;25.53;49.62;101311.00;5019910;28;20089;-54
2023/06/25 08:15:47;;;;;;;6.15;5.35;;;;;;;25.68;49.75;101313.84;5015461;28;20826;-55
2023/06/25 08:18:15;;;;;;;7.38;5.63;;;;;;;25.73;48.44;101314.19;5021831;28;20409;-51
2023/06/25 08:20:43;;;;;;;6.65;5.95;;;;;;;25.71;49.14;101311.66;5021294;28;20068;-54
2023/06/25 08:23:10;;;;;;;6.40;5.75;;;;;;;25.84;48.68;101315.69;5028849;28;20057;-54
2023/06/25 08:25:37;;;;;;;8.45;6.25;;;;;;;25.94;48.33;101313.66;5023006;28;20062;-54
2023/06/25 08:28:05;;;;;;;6.13;5.53;;;;;;;26.15;47.55;101311.19;5024586;28;20056;-55
2023/06/25 08:30:32;;;;;;;6.32;5.72;;;;;;;26.13;47.55;101317.78;5017133;28;20053;-52
2023/06/25 08:33:00;;;;;;;8.93;5.75;;;;;;;26.19;47.32;101323.31;5016384;28;20145;-54
2023/06/25 08:35:27;;;;;;;6.30;5.65;;;;;;;26.27;47.52;101317.88;5025355;28;20045;-53
2023/06/25 08:37:54;;;;;;;10.65;6.15;;;;;;;26.36;46.92;101317.84;5014105;28;20061;-55
2023/06/25 08:40:22;;;;;;;6.68;5.97;;;;;;;26.51;46.92;101321.50;5022555;28;20049;-54
2023/06/25 08:42:49;;;;;;;6.68;5.90;;;;;;;26.67;47.29;101321.41;5016478;28;20066;-53
2023/06/25 08:45:18;;;;;;;7.63;5.53;;;;;;;26.80;47.03;101314.56;5013098;28;20072;-55
2023/06/25 08:47:50;;;;;;;6.35;5.85;;;;;;;26.89;46.48;101319.72;5019761;28;20136;-52
2023/06/25 08:50:19;;;;;;;8.20;6.00;;;;;;;26.94;46.15;101313.78;5024356;28;20064;-54
2023/06/25 08:52:47;;;;;;;9.65;6.47;;;;;;;26.93;45.35;101304.00;5000244;28;20050;-53
2023/06/25 08:55:14;;;;;;;6.28;5.53;;;;;;;27.01;45.15;101312.84;5021001;28;20057;-53
2023/06/25 08:57:42;;;;;;;7.40;6.15;;;;;;;27.12;45.70;101311.63;5015737;28;20573;-55
2023/06/25 09:00:09;;;;;;;6.40;5.78;;;;;;;27.29;45.48;101306.94;5016015;28;20088;-55
2023/06/25 09:02:36;;;;;;;8.93;6.78;;;;;;;27.31;45.18;101304.03;5024849;28;20057;-51
2023/06/25 09:05:05;;;;;;;7.40;5.80;;;;;;;27.42;45.24;101304.44;5020498;28;20303;-54
2023/06/25 09:07:42;;;;;;;7.20;6.28;;;;;;;27.60;45.52;101304.06;5015772;28;20046;-53
2023/06/25 09:10:09;;;;;;;6.90;6.20;;;;;;;27.76;45.04;101303.91;5013462;28;20062;-55
2023/06/25 09:12:37;;;;;;;8.57;6.28;;;;;;;27.82;45.04;101301.47;5013896;28;20103;-51
2023/06/25 09:15:07;;;;;;;7.22;6.00;;;;;;;27.86;44.88;101295.50;5022811;28;20054;-55
2023/06/25 09:17:36;;;;;;;6.35;5.68;;;;;;;27.90;44.56;101302.22;5015769;28;20512;-50
2023/06/25 09:20:04;;;;;;;7.15;6.07;;;;;;;27.64;43.59;101299.13;5012566;28;20056;-55
2023/06/25 09:22:32;;;;;;;10.15;5.80;;;;;;;27.44;44.28;101288.03;5015951;28;20062;-54
2023/06/25 09:25:00;;;;;;;8.65;6.38;;;;;;;27.29;44.33;101298.81;5015408;28;20421;-55
2023/06/25 09:27:27;;;;;;;6.78;6.03;;;;;;;26.88;45.14;101290.16;5021325;28;20050;-53
2023/06/25 09:29:57;;;;;;;11.77;6.03;;;;;;;27.13;44.37;101299.78;5018286;28;20056;-54
2023/06/25 09:32:25;;;;;;;7.22;5.43;;;;;;;27.32;43.90;101292.19;5025537;28;20059;-53
2023/06/25 09:34:52;;;;;;;5.53;5.03;;;;;;;27.66;44.15;101292.50;5010265;28;20097;-52
2023/06/25 09:37:20;;;;;;;6.00;5.22;;;;;;;27.94;43.99;101291.88;5017532;28;20052;-54
2023/06/25 09:39:48;;;;;;;6.55;5.82;;;;;;;28.05;43.11;101298.66;5015592;28;20061;-52
2023/06/25 09:42:17;;;;;;;7.22;6.53;;;;;;;27.91;42.61;101290.38;5018371;28;20052;-53
2023/06/25 09:44:46;;;;;;;6.88;5.30;;;;;;;27.80;43.31;101281.91;5014515;28;20058;-55
2023/06/25 09:47:16;;;;;;;7.32;6.15;;;;;;;27.64;43.77;101289.13;5019414;28;20045;-56
2023/06/25 09:49:43;;;;;;;6.15;5.55;;;;;;;27.37;44.24;101274.38;5014386;28;20109;-53
2023/06/25 09:52:15;;;;;;;8.60;5.75;;;;;;;27.61;44.34;101281.41;5015404;28;20466;-52
2023/06/25 09:54:43;;;;;;;7.82;5.63;;;;;;;27.80;44.01;101279.19;5011063;28;20502;-53
2023/06/25 09:57:14;;;;;;;7.18;6.05;;;;;;;27.90;43.28;101275.16;5013162;28;20533;-55
2023/06/25 09:59:42;;;;;;;12.25;6.10;;;;;;;27.79;43.73;101272.94;5013651;28;20050;-54
2023/06/25 10:02:09;;;;;;;7.35;5.82;;;;;;;27.87;44.23;101272.00;5012452;28;20142;-55
2023/06/25 10:04:37;;;;;;;6.97;5.38;;;;;;;27.99;43.90;101268.63;5018789;28;20064;-52
2023/06/25 10:07:05;;;;;;;6.07;5.47;;;;;;;28.18;43.80;101261.75;5016533;28;20065;-54
2023/06/25 10:09:33;;;;;;;8.48;4.57;;;;;;;27.93;43.21;101263.97;5016085;28;20059;-56
2023/06/25 10:12:00;;;;;;;7.40;5.30;;;;;;;27.98;43.28;101264.25;5012799;28;20066;-55
2023/06/25 10:14:37;;;;;;;7.13;5.45;;;;;;;27.57;42.94;101253.06;5011267;28;20064;-53
2023/06/25 10:17:05;;;;;;;4.97;4.20;;;;;;;27.66;43.13;101251.09;5007133;28;20054;-55
2023/06/25 10:19:32;;;;;;;5.68;4.93;;;;;;;27.85;43.61;101255.13;5011348;28;20060;-54
2023/06/25 10:22:15;;;;;;;6.18;5.05;;;;;;;27.93;43.18;101245.03;5011764;28;20060;-54
2023/06/25 10:24:46;;;;;;;6.53;3.90;;;;;;;28.02;42.89;101252.00;5012300;28;20080;-52
2023/06/25 10:27:25;;;;;;;7.05;5.82;;;;;;;27.60;43.48;101247.25;5019706;28;20050;-51
2023/06/25 10:29:53;;;;;;;4.95;4.45;;;;;;;27.55;44.22;101246.13;5009072;28;20045;-52
2023/06/25 10:32:22;;;;;;;7.68;5.15;;;;;;;27.55;44.11;101241.56;5018362;28;20076;-55
2023/06/25 10:34:59;;;;;;;8.20;5.13;;;;;;;27.52;44.58;101233.84;5016548;28;20049;-56
2023/06/25 10:37:30;;;;;;;5.45;4.75;;;;;;;27.76;44.04;101236.28;5018182;28;20084;-52
2023/06/25 10:40:07;;;;;;;6.72;4.13;;;;;;;28.13;44.79;101229.00;5017502;28;20038;-54
2023/06/25 10:42:36;;;;;;;6.00;4.50;;;;;;;28.34;44.03;101230.91;5017872;28;20161;-53
2023/06/25 10:45:04;;;;;;;5.43;4.15;;;;;;;28.49;42.86;101228.19;5010619;28;20054;-54
2023/06/25 10:47:35;;;;;;;9.00;4.35;;;;;;;28.35;42.77;101234.50;5016490;28;20186;-55
2023/06/25 10:50:03;;;;;;;5.03;4.47;;;;;;;28.16;42.41;101235.94;5023411;28;20398;-55
2023/06/25 10:52:30;;;;;;;8.48;5.00;;;;;;;27.73;43.08;101227.69;5026210;28;20710;-51
2023/06/25 10:55:00;;;;;;;7.18;4.53;;;;;;;27.70;43.94;101226.19;5016121;28;20152;-53
2023/06/25 10:57:31;;;;;;;6.22;4.15;;;;;;;27.93;43.36;101217.97;5018156;28;20065;-52
2023/06/25 10:59:58;;;;;;;7.00;4.68;;;;;;;28.18;42.83;101217.63;5010896;28;20133;-54
2023/06/25 11:02:25;;;;;;;6.93;4.95;;;;;;;28.30;43.06;101217.97;5016808;28;20108;-55
2023/06/25 11:04:54;;;;;;;5.25;4.55;;;;;;;28.27;42.71;101216.47;5022149;28;20055;-54
2023/06/25 11:07:23;;;;;;;5.65;4.18;;;;;;;28.41;43.05;101215.59;5018123;28;20054;-54
2023/06/25 11:09:55;;;;;;;5.43;4.57;;;;;;;28.67;42.68;101217.72;5013723;28;20057;-51
2023/06/25 11:12:22;;;;;;;5.85;4.63;;;;;;;29.01;42.21;101211.59;5018968;28;20057;-52
2023/06/25 11:14:49;;;;;;;7.68;4.40;;;;;;;29.49;41.79;101208.09;5021864;28;20060;-52
2023/06/25 11:17:17;;;;;;;6.18;4.75;;;;;;;29.80;41.24;101213.09;5014267;28;20054;-55
2023/06/25 11:19:54;;;;;;;5.35;4.72;;;;;;;29.77;40.46;101208.91;5015489;28;20061;-56